createdAt,value
2022-12-03T00:00:16.508Z,-1.30
2022-12-03T00:05:00.066Z,-1.30
2022-12-03T00:09:43.527Z,-1.30
2022-12-03T00:14:28.474Z,-1.40
2022-12-03T00:19:12.024Z,-1.50
2022-12-03T00:23:56.845Z,-1.50
2022-12-03T00:28:41.147Z,-1.40
2022-12-03T00:33:26.134Z,-1.40
2022-12-03T00:38:09.759Z,-1.40
2022-12-03T00:42:53.253Z,-1.50
2022-12-03T00:47:36.681Z,-1.40
2022-12-03T00:52:21.636Z,-1.50
2022-12-03T00:57:05.309Z,-1.40
2022-12-03T01:01:48.938Z,-1.40
2022-12-03T01:06:32.725Z,-1.40
2022-12-03T01:11:35.158Z,-1.40
2022-12-03T01:16:18.734Z,-1.60
2022-12-03T01:21:02.344Z,-1.60
2022-12-03T01:25:45.848Z,-1.40
2022-12-03T01:30:51.383Z,-1.40
2022-12-03T01:35:35.389Z,-1.60
2022-12-03T01:40:22.985Z,-1.80
2022-12-03T01:45:07.575Z,-1.70
2022-12-03T01:49:55.468Z,-1.60
2022-12-03T01:54:42.500Z,-1.70
2022-12-03T01:59:34.203Z,-1.90
2022-12-03T02:04:18.600Z,-1.90
2022-12-03T02:09:03.674Z,-1.80
2022-12-03T02:13:49.340Z,-1.80
2022-12-03T02:18:32.838Z,-1.90
2022-12-03T02:23:27.750Z,-2.00
2022-12-03T02:28:12.804Z,-1.80
2022-12-03T02:32:57.041Z,-2.00
2022-12-03T02:37:40.646Z,-2.10
2022-12-03T02:42:36.660Z,-2.00
2022-12-03T02:47:22.592Z,-2.10
2022-12-03T02:52:06.570Z,-2.10
2022-12-03T02:56:50.360Z,-1.80
2022-12-03T03:01:35.163Z,-2.00
2022-12-03T03:06:21.991Z,-2.20
2022-12-03T03:11:05.840Z,-2.20
2022-12-03T03:15:49.689Z,-2.20
2022-12-03T03:20:33.253Z,-2.30
2022-12-03T03:25:22.655Z,-2.40
2022-12-03T03:30:07.297Z,-2.30
2022-12-03T03:34:51.304Z,-2.40
2022-12-03T03:39:35.450Z,-2.50
2022-12-03T03:44:20.336Z,-2.40
2022-12-03T03:49:05.188Z,-2.30
2022-12-03T03:53:51.097Z,-2.10
2022-12-03T03:58:34.639Z,-2.10
2022-12-03T04:03:19.463Z,-2.10
2022-12-03T04:08:02.932Z,-2.20
2022-12-03T04:12:58.592Z,-2.40
2022-12-03T04:17:41.985Z,-2.50
2022-12-03T04:22:42.109Z,-2.50
2022-12-03T04:27:42.578Z,-2.60
2022-12-03T04:32:43.412Z,-2.70
2022-12-03T04:37:28.490Z,-2.50
2022-12-03T04:42:12.096Z,-2.40
2022-12-03T04:46:55.516Z,-2.40
2022-12-03T04:51:39.227Z,-2.30
2022-12-03T04:56:24.039Z,-2.20
2022-12-03T05:01:07.472Z,-2.00
2022-12-03T05:05:50.998Z,-1.90
2022-12-03T05:10:34.402Z,-1.70
2022-12-03T05:15:19.928Z,-1.60
2022-12-03T05:20:20.878Z,-1.40
2022-12-03T05:25:04.493Z,-1.30
2022-12-03T05:29:49.321Z,-1.20
2022-12-03T05:34:34.160Z,-1.00
2022-12-03T05:39:17.638Z,-1.00
2022-12-03T05:44:01.037Z,-0.90
2022-12-03T05:48:44.622Z,-0.80
2022-12-03T05:53:29.567Z,-0.70
2022-12-03T05:58:13.457Z,-0.60
2022-12-03T06:02:57.772Z,-0.70
2022-12-03T06:07:41.525Z,-0.60
2022-12-03T06:12:26.533Z,-0.50
2022-12-03T06:17:09.945Z,-0.40
2022-12-03T06:21:53.632Z,-0.50
2022-12-03T06:26:37.383Z,-0.50
2022-12-03T06:31:22.307Z,-0.40
2022-12-03T06:36:06.465Z,-0.30
2022-12-03T06:40:50.111Z,-0.30
2022-12-03T06:45:33.553Z,-0.20
2022-12-03T06:50:18.729Z,-0.30
2022-12-03T06:55:03.040Z,-0.20
2022-12-03T06:59:47.299Z,-0.20
2022-12-03T07:04:30.930Z,-0.20
2022-12-03T07:09:17.974Z,-0.20
2022-12-03T07:14:05.723Z,-0.30
2022-12-03T07:18:50.265Z,-0.20
2022-12-03T07:23:34.556Z,-0.30
2022-12-03T07:28:19.404Z,-0.20
2022-12-03T07:33:02.914Z,0.00
2022-12-03T07:37:46.458Z,0.00
2022-12-03T07:42:29.922Z,0.10
2022-12-03T07:47:14.801Z,0.20
2022-12-03T07:51:58.599Z,0.20
2022-12-03T07:56:42.820Z,0.30
2022-12-03T08:01:26.437Z,0.30
2022-12-03T08:06:11.600Z,0.20
2022-12-03T08:10:55.092Z,0.20
2022-12-03T08:15:39.627Z,0.20
2022-12-03T08:20:25.009Z,0.20
2022-12-03T08:25:16.503Z,0.30
2022-12-03T08:30:04.939Z,0.20
2022-12-03T08:34:48.396Z,0.20
2022-12-03T08:39:34.487Z,0.30
2022-12-03T08:44:29.168Z,0.30
2022-12-03T08:49:13.056Z,0.40
2022-12-03T08:54:05.505Z,0.50
2022-12-03T08:58:51.155Z,0.60
2022-12-03T09:03:36.615Z,0.60
2022-12-03T09:08:20.243Z,0.60
2022-12-03T09:13:03.875Z,0.70
2022-12-03T09:17:47.328Z,0.80
2022-12-03T09:22:34.863Z,0.90
2022-12-03T09:27:19.404Z,1.00
2022-12-03T09:32:02.879Z,1.10
2022-12-03T09:36:46.391Z,1.20
2022-12-03T09:41:31.238Z,1.30
2022-12-03T09:46:15.116Z,1.30
2022-12-03T09:50:58.960Z,1.40
2022-12-03T09:55:43.829Z,1.40
2022-12-03T10:00:31.568Z,1.50
2022-12-03T10:05:15.839Z,1.50
2022-12-03T10:09:59.259Z,1.60
2022-12-03T10:14:43.945Z,1.70
2022-12-03T10:19:33.046Z,1.70
2022-12-03T10:24:23.120Z,1.70
2022-12-03T10:29:13.900Z,1.70
2022-12-03T10:34:00.031Z,1.60
2022-12-03T10:38:45.192Z,1.70
2022-12-03T10:43:28.619Z,1.70
2022-12-03T10:48:17.798Z,1.70
2022-12-03T10:53:01.268Z,1.70
2022-12-03T10:57:47.182Z,1.60
2022-12-03T11:02:30.669Z,1.70
2022-12-03T11:07:19.660Z,1.70
2022-12-03T11:12:06.315Z,1.80
2022-12-03T11:17:12.321Z,1.90
2022-12-03T11:22:28.057Z,2.00
2022-12-03T11:27:22.595Z,2.10
2022-12-03T11:32:06.132Z,2.10
2022-12-03T11:37:24.778Z,2.20
2022-12-03T11:42:30.756Z,2.20
2022-12-03T11:47:17.302Z,2.30
2022-12-03T11:52:04.158Z,2.30
2022-12-03T11:56:50.266Z,2.30
2022-12-03T12:01:38.979Z,2.30
2022-12-03T12:06:23.431Z,2.30
2022-12-03T12:11:18.358Z,2.40
2022-12-03T12:16:05.342Z,2.40
2022-12-03T12:20:48.947Z,2.50
2022-12-03T12:25:42.489Z,2.50
2022-12-03T12:30:26.186Z,2.40
2022-12-03T12:35:19.569Z,2.30
2022-12-03T12:40:07.680Z,2.30
2022-12-03T12:44:51.969Z,2.30
2022-12-03T12:49:35.619Z,2.40
2022-12-03T12:54:20.926Z,2.40
2022-12-03T12:59:14.312Z,2.30
2022-12-03T13:03:59.711Z,2.30
2022-12-03T13:08:47.075Z,2.30
2022-12-03T13:13:43.679Z,2.30
2022-12-03T13:18:34.523Z,2.30
2022-12-03T13:23:35.338Z,2.20
2022-12-03T13:28:19.285Z,2.20
2022-12-03T13:33:13.717Z,2.20
2022-12-03T13:37:59.014Z,2.20
2022-12-03T13:42:42.760Z,2.20
2022-12-03T13:47:26.251Z,2.00
2022-12-03T13:52:17.397Z,2.00
2022-12-03T13:57:02.804Z,2.10
2022-12-03T14:01:46.750Z,2.10
2022-12-03T14:06:30.846Z,2.10
2022-12-03T14:11:30.163Z,2.10
2022-12-03T14:16:14.198Z,2.00
2022-12-03T14:20:57.758Z,2.00
2022-12-03T14:25:41.669Z,1.90
2022-12-03T14:30:26.611Z,1.90
2022-12-03T14:35:10.782Z,2.00
2022-12-03T14:39:54.706Z,1.90
2022-12-03T14:44:38.614Z,1.60
2022-12-03T14:49:23.825Z,1.70
2022-12-03T14:54:07.426Z,1.60
2022-12-03T14:58:50.929Z,1.60
2022-12-03T15:03:34.521Z,1.60
2022-12-03T15:08:19.665Z,1.60
2022-12-03T15:13:03.273Z,1.50
2022-12-03T15:17:47.537Z,1.50
2022-12-03T15:22:31.179Z,1.50
2022-12-03T15:27:16.068Z,1.50
2022-12-03T15:32:01.510Z,1.50
2022-12-03T15:36:45.885Z,1.60
2022-12-03T15:41:30.683Z,1.60
2022-12-03T15:46:16.426Z,1.60
2022-12-03T15:51:00.999Z,1.60
2022-12-03T15:55:44.565Z,1.60
2022-12-03T16:00:28.711Z,1.50
2022-12-03T16:05:15.230Z,1.40
2022-12-03T16:09:59.252Z,1.40
2022-12-03T16:14:43.589Z,1.30
2022-12-03T16:19:27.439Z,1.30
2022-12-03T16:24:12.744Z,1.20
2022-12-03T16:28:56.928Z,1.30
2022-12-03T16:33:40.827Z,1.20
2022-12-03T16:38:27.120Z,1.20
2022-12-03T16:43:13.013Z,1.20
2022-12-03T16:47:57.368Z,1.20
2022-12-03T16:52:40.929Z,1.10
2022-12-03T16:57:30.265Z,1.10
2022-12-03T17:02:19.099Z,1.10
2022-12-03T17:07:03.709Z,1.10
2022-12-03T17:11:48.377Z,1.10
2022-12-03T17:16:32.429Z,1.10
2022-12-03T17:21:18.255Z,1.10
2022-12-03T17:26:02.149Z,1.10
2022-12-03T17:30:46.533Z,1.10
2022-12-03T17:35:30.378Z,1.10
2022-12-03T17:40:17.397Z,1.10
2022-12-03T17:45:01.585Z,1.10
2022-12-03T17:49:46.129Z,1.10
2022-12-03T17:54:48.974Z,1.10
2022-12-03T17:59:34.933Z,1.10
2022-12-03T18:04:19.158Z,1.10
2022-12-03T18:09:03.089Z,1.10
2022-12-03T18:13:47.306Z,1.10
2022-12-03T18:18:32.890Z,1.10
2022-12-03T18:23:17.227Z,1.00
2022-12-03T18:28:03.506Z,1.10
2022-12-03T18:32:48.097Z,1.10
2022-12-03T18:37:35.005Z,1.00
2022-12-03T18:42:22.132Z,1.00
2022-12-03T18:47:14.398Z,0.90
2022-12-03T18:51:59.830Z,0.90
2022-12-03T18:56:46.389Z,0.90
2022-12-03T19:01:34.150Z,2.60
2022-12-03T19:06:25.816Z,1.50
2022-12-03T19:11:10.472Z,1.30
2022-12-03T19:15:56.956Z,1.70
2022-12-03T19:20:46.775Z,1.50
2022-12-03T19:25:31.387Z,1.40
2022-12-03T19:30:29.380Z,1.30
2022-12-03T19:35:17.978Z,1.30
2022-12-03T19:40:04.775Z,1.30
2022-12-03T19:44:51.077Z,1.20
2022-12-03T19:49:35.999Z,1.20
2022-12-03T19:54:25.258Z,1.10
2022-12-03T19:59:10.096Z,1.10
2022-12-03T20:03:58.739Z,1.10
2022-12-03T20:08:45.600Z,0.90
2022-12-03T20:13:36.288Z,0.90
2022-12-03T20:18:22.624Z,0.80
2022-12-03T20:23:09.356Z,0.70
2022-12-03T20:27:54.652Z,0.70
2022-12-03T20:32:45.252Z,0.60
2022-12-03T20:37:31.425Z,0.60
2022-12-03T20:42:15.701Z,0.50
2022-12-03T20:47:01.911Z,0.40
2022-12-03T20:51:51.135Z,0.20
2022-12-03T20:56:37.261Z,0.30
2022-12-03T21:01:25.612Z,0.70
2022-12-03T21:06:10.841Z,0.40
2022-12-03T21:10:57.044Z,0.30
2022-12-03T21:15:43.150Z,0.10
2022-12-03T21:20:28.194Z,0.10
2022-12-03T21:25:14.301Z,0.00
2022-12-03T21:30:33.091Z,0.10
2022-12-03T21:35:19.756Z,0.10
2022-12-03T21:40:05.022Z,0.10
2022-12-03T21:44:50.006Z,0.10
2022-12-03T21:49:37.084Z,0.10
2022-12-03T21:54:21.105Z,0.10
2022-12-03T21:59:05.249Z,0.10
2022-12-03T22:03:50.391Z,0.00
2022-12-03T22:08:35.622Z,0.10
2022-12-03T22:13:19.387Z,0.00
2022-12-03T22:18:05.540Z,0.10
2022-12-03T22:22:50.106Z,0.00
2022-12-03T22:27:35.032Z,-0.10
2022-12-03T22:32:18.602Z,-0.10
2022-12-03T22:37:02.863Z,-0.20
2022-12-03T22:41:46.505Z,-0.30
2022-12-03T22:46:32.450Z,-0.30
2022-12-03T22:51:18.961Z,-0.30
2022-12-03T22:56:03.064Z,-0.30
2022-12-03T23:05:39.244Z,-0.40
2022-12-03T23:10:23.596Z,-0.50
2022-12-03T23:15:08.710Z,-0.40
2022-12-03T23:19:52.228Z,-0.40
2022-12-03T23:24:38.012Z,-0.40
2022-12-03T23:29:22.535Z,-0.50
2022-12-03T23:34:07.234Z,-0.40
2022-12-03T23:38:50.798Z,-0.40
2022-12-03T23:43:36.350Z,-0.50
2022-12-03T23:48:19.840Z,-0.70
2022-12-03T23:53:03.600Z,-0.60
2022-12-03T23:57:47.065Z,-0.70
